Time;durP1;ratioP1;P1;durP2;ratioP2;P2;SDS_P1;SDS_P2;PMS_P1;PMS_P2;Temp;Humidity;BMP_temperature;BMP_pressure;BME280_temperature;BME280_humidity;BME280_pressure;Samples;Min_cycle;Max_cycle;Signal;HPM_P1;HPM_P2
2023/09/20 00:03:29;;;;;;;;;;;20.50;43.40;;;19.77;45.24;100720.72;12137309;19;20020;-83
2023/09/20 00:07:30;;;;;;;;;;;20.50;43.40;;;19.71;45.55;100713.31;12136568;19;19926;-82
2023/09/20 00:11:32;;;;;;;;;;;20.50;43.50;;;19.76;45.65;100727.81;12132775;19;19952;-82
2023/09/20 00:15:33;;;;;;;;;;;20.50;43.40;;;19.69;45.52;100710.81;12136836;19;20712;-82
2023/09/20 00:19:38;;;;;;;;;;;20.50;43.40;;;19.67;45.39;100713.59;12134561;19;20290;-82
2023/09/20 00:23:39;;;;;;;;;;;20.40;43.40;;;19.67;45.53;100715.44;12133302;19;20197;-82
2023/09/20 00:27:45;;;;;;;;;;;20.40;43.40;;;19.61;45.61;100708.03;12135345;19;19922;-82
2023/09/20 00:31:46;;;;;;;;;;;20.40;43.40;;;19.65;45.24;100723.47;12125932;19;19915;-83
2023/09/20 00:35:48;;;;;;;;;;;20.40;43.50;;;19.62;45.66;100717.63;12137481;19;20279;-83
2023/09/20 00:39:50;;;;;;;;;;;20.30;43.40;;;19.55;45.48;100713.88;12143032;19;19919;-83
2023/09/20 00:43:53;;;;;;;;;;;20.30;43.40;;;19.51;45.58;100707.22;12143964;19;20355;-83
2023/09/20 00:47:57;;;;;;;;;;;20.30;43.40;;;19.45;45.46;100704.16;12143893;19;20233;-83
2023/09/20 00:52:00;;;;;;;;;;;20.30;43.50;;;19.48;45.64;100713.63;12140392;19;19911;-83
2023/09/20 00:56:04;;;;;;;;;;;20.30;43.50;;;19.51;45.60;100720.47;12142234;19;20065;-82
2023/09/20 01:00:19;;;;;;;;;;;20.30;43.70;;;19.37;45.87;100693.44;12139838;19;19929;-83
2023/09/20 01:04:21;;;;;;;;;;;20.30;43.50;;;19.49;45.63;100711.81;12142691;19;20484;-83
2023/09/20 01:08:23;;;;;;;;;;;20.30;43.60;;;19.49;45.30;100711.81;12144009;19;20471;-83
2023/09/20 01:12:25;;;;;;;;;;;20.20;43.60;;;19.35;45.71;100708.63;12138264;19;20188;-83
2023/09/20 01:16:27;;;;;;;;;;;20.20;43.50;;;19.39;45.63;100717.97;12140071;19;20272;-83
2023/09/20 01:20:30;;;;;;;;;;;20.20;43.60;;;19.39;45.66;100725.91;12138116;19;20434;-83
2023/09/20 01:24:33;;;;;;;;;;;20.10;43.60;;;19.35;45.61;100724.53;12139940;19;19946;-83
2023/09/20 01:28:35;;;;;;;;;;;20.10;43.60;;;19.40;45.56;100729.41;12139693;19;19919;-83
2023/09/20 01:32:37;;;;;;;;;;;20.10;43.60;;;19.28;45.76;100704.03;12138905;19;20755;-83
2023/09/20 01:36:40;;;;;;;;;;;20.10;43.60;;;19.35;45.81;100723.69;12139959;19;20642;-83
2023/09/20 01:40:42;;;;;;;;;;;20.10;43.60;;;19.32;45.77;100716.88;12138858;19;19923;-83
2023/09/20 01:44:44;;;;;;;;;;;20.10;43.60;;;19.24;45.69;100700.84;12140300;19;20417;-82
2023/09/20 01:48:47;;;;;;;;;;;20.10;43.70;;;19.29;45.61;100711.84;12135991;19;19930;-83
2023/09/20 01:52:50;;;;;;;;;;;20.10;43.70;;;19.28;45.65;100715.50;12132536;19;20383;-83
2023/09/20 01:56:51;;;;;;;;;;;20.10;43.70;;;19.30;45.87;100726.75;12140228;19;20375;-83
2023/09/20 02:00:54;;;;;;;;;;;20.10;43.70;;;19.31;45.59;100723.16;12137015;19;20013;-82
2023/09/20 02:04:55;;;;;;;;;;;20.10;43.70;;;19.24;45.39;100709.63;12140564;19;20298;-82
2023/09/20 02:08:56;;;;;;;;;;;20.00;43.70;;;19.18;45.72;100702.25;12140300;19;20476;-83
2023/09/20 02:12:59;;;;;;;;;;;20.00;43.70;;;19.18;45.53;100698.78;12135152;19;19926;-83
2023/09/20 02:17:00;;;;;;;;;;;20.00;43.70;;;19.14;45.83;100697.38;12138577;19;20482;-83
2023/09/20 02:21:02;;;;;;;;;;;19.90;43.80;;;19.25;45.56;100718.38;12138222;19;20773;-83
2023/09/20 02:25:09;;;;;;;;;;;20.00;43.80;;;19.21;45.96;100715.19;12140667;19;19929;-82
2023/09/20 02:29:11;;;;;;;;;;;20.00;43.80;;;19.13;45.82;100699.19;12137021;19;19923;-83
2023/09/20 02:33:14;;;;;;;;;;;20.00;43.90;;;19.20;45.95;100718.84;12134300;19;19934;-83
2023/09/20 02:37:17;;;;;;;;;;;20.00;43.80;;;19.17;45.78;100710.31;12137374;19;20847;-83
2023/09/20 02:41:18;;;;;;;;;;;20.00;43.90;;;19.21;45.95;100717.03;12133295;19;19994;-82
2023/09/20 02:45:23;;;;;;;;;;;20.00;43.90;;;19.22;45.88;100721.31;12137007;19;19941;-83
2023/09/20 02:49:26;;;;;;;;;;;20.00;43.90;;;19.20;45.80;100718.00;12134079;19;20233;-83
2023/09/20 02:53:28;;;;;;;;;;;20.00;43.90;;;19.21;45.89;100722.31;12133119;19;20256;-83
2023/09/20 02:57:29;;;;;;;;;;;20.00;43.90;;;19.21;45.67;100714.38;12133277;19;19918;-83
2023/09/20 03:01:33;;;;;;;;;;;20.00;44.10;;;19.12;45.83;100699.31;12134395;19;20887;-83
2023/09/20 03:05:35;;;;;;;;;;;20.00;44.00;;;19.21;46.11;100707.25;12135617;19;20792;-82
2023/09/20 03:09:41;;;;;;;;;;;20.00;44.10;;;19.22;46.02;100708.91;12132453;19;19929;-83
2023/09/20 03:13:43;;;;;;;;;;;20.00;44.10;;;19.27;45.89;100705.84;12134638;19;20359;-82
2023/09/20 03:17:45;;;;;;;;;;;20.00;44.10;;;19.25;45.86;100691.91;12135759;19;19947;-83
2023/09/20 03:21:47;;;;;;;;;;;20.00;44.60;;;19.25;46.17;100691.91;12130383;19;20753;-82
2023/09/20 03:25:50;;;;;;;;;;;20.10;44.30;;;19.30;46.11;100700.28;12135363;19;20364;-82
2023/09/20 03:29:57;;;;;;;;;;;20.10;44.20;;;19.33;45.93;100694.69;12131694;19;20184;-82
2023/09/20 03:34:04;;;;;;;;;;;20.10;44.20;;;19.23;45.72;100675.34;12133610;19;20189;-83
2023/09/20 03:38:14;;;;;;;;;;;20.10;44.30;;;19.28;46.24;100683.72;12133547;19;19939;-83
2023/09/20 03:42:17;;;;;;;;;;;20.10;44.20;;;19.35;46.15;100705.97;12133988;19;19989;-82
2023/09/20 03:46:18;;;;;;;;;;;20.10;44.20;;;19.30;45.94;100692.31;12130720;19;19923;-82
2023/09/20 03:50:22;;;;;;;;;;;20.20;44.30;;;19.38;45.93;100695.09;12130061;19;19919;-83
2023/09/20 03:54:25;;;;;;;;;;;20.20;44.30;;;19.35;46.25;100691.91;12133178;19;20283;-82
2023/09/20 03:58:28;;;;;;;;;;;20.20;44.30;;;19.40;45.87;100687.03;12134409;19;19923;-83
2023/09/20 04:02:30;;;;;;;;;;;20.20;44.40;;;19.45;46.23;100693.56;12134090;19;19926;-86
2023/09/20 04:06:34;;;;;;;;;;;20.20;44.30;;;19.45;45.99;100690.91;12134382;19;20948;-83
2023/09/20 04:10:36;;;;;;;;;;;20.30;44.40;;;19.44;46.25;100683.97;12129607;19;19948;-83
2023/09/20 04:14:39;;;;;;;;;;;20.30;44.40;;;19.41;46.23;100688.69;12133190;19;19938;-83
2023/09/20 04:18:43;;;;;;;;;;;20.30;44.40;;;19.51;46.12;100699.28;12135376;19;20504;-83
2023/09/20 04:22:45;;;;;;;;;;;20.30;44.40;;;19.51;46.22;100700.09;12133052;19;19930;-83
2023/09/20 04:26:47;;;;;;;;;;;20.30;44.50;;;19.52;46.19;100698.28;12130132;19;19943;-83
2023/09/20 04:30:49;;;;;;;;;;;20.30;44.40;;;19.53;46.22;100716.69;12128544;19;20785;-83
2023/09/20 04:34:52;;;;;;;;;;;20.30;44.50;;;19.49;46.11;100704.69;12126792;19;19940;-83
2023/09/20 04:38:55;;;;;;;;;;;20.30;44.50;;;19.50;46.19;100702.91;12130863;19;19918;-83
2023/09/20 04:42:57;;;;;;;;;;;20.30;44.50;;;19.45;46.39;100696.22;12132645;19;19915;-83
2023/09/20 04:46:58;;;;;;;;;;;20.30;44.60;;;19.50;46.26;100718.81;12132821;19;19933;-84
2023/09/20 04:51:01;;;;;;;;;;;20.30;44.50;;;19.55;46.01;100730.63;12128107;19;20436;-83
2023/09/20 04:55:03;;;;;;;;;;;20.30;44.50;;;19.54;46.22;100736.06;12132553;19;20671;-83
2023/09/20 04:59:08;;;;;;;;;;;20.30;44.70;;;19.46;46.17;100719.06;12131892;19;20444;-83
2023/09/20 05:03:11;;;;;;;;;;;20.30;44.60;;;19.52;46.34;100736.19;12130378;19;19923;-83
2023/09/20 05:07:13;;;;;;;;;;;20.30;44.60;;;19.47;45.96;100722.56;12132128;19;19951;-83
2023/09/20 05:11:16;;;;;;;;;;;20.30;44.70;;;19.54;46.26;100751.97;12127511;19;20191;-83
2023/09/20 05:15:18;;;;;;;;;;;20.30;44.70;;;19.52;46.13;100743.31;12131900;19;19919;-84
2023/09/20 05:19:23;;;;;;;;;;;20.30;44.70;;;19.52;46.22;100748.59;12130259;19;19927;-84
2023/09/20 05:23:24;;;;;;;;;;;20.30;44.70;;;19.44;46.10;100742.22;12142307;19;20240;-83
2023/09/20 05:27:26;;;;;;;;;;;20.30;44.70;;;19.39;46.13;100728.56;12144423;19;20287;-83
2023/09/20 05:31:28;;;;;;;;;;;20.30;44.80;;;19.52;46.35;100756.56;12141004;19;19951;-85
2023/09/20 05:35:30;;;;;;;;;;;20.30;44.90;;;19.49;46.48;100746.25;12150417;19;20006;-85
2023/09/20 05:39:31;;;;;;;;;;;20.30;44.90;;;19.30;46.28;100716.16;12144653;19;20184;-85
2023/09/20 05:43:36;;;;;;;;;;;20.30;45.50;;;19.50;46.40;100751.41;12145664;19;20665;-84
2023/09/20 05:47:39;;;;;;;;;;;20.30;45.00;;;19.50;46.45;100750.59;12147405;19;19926;-85
2023/09/20 05:51:41;;;;;;;;;;;20.30;45.20;;;19.44;46.21;100742.22;12144835;19;20545;-85
2023/09/20 05:55:46;;;;;;;;;;;20.30;45.20;;;19.43;46.23;100745.84;12142664;19;20380;-85
2023/09/20 05:59:47;;;;;;;;;;;20.30;45.10;;;19.54;46.59;100757.25;12141572;19;19922;-84
2023/09/20 06:03:49;;;;;;;;;;;20.30;45.10;;;19.53;46.56;100761.72;12145513;19;20260;-85
2023/09/20 06:07:51;;;;;;;;;;;20.30;45.40;;;19.54;46.36;100765.19;12146975;19;19926;-84
2023/09/20 06:11:52;;;;;;;;;;;20.40;45.20;;;19.54;46.67;100760.72;12140734;19;20484;-85
2023/09/20 06:15:54;;;;;;;;;;;20.40;45.30;;;19.61;46.35;100768.97;12144070;19;20009;-84
2023/09/20 06:19:57;;;;;;;;;;;20.40;45.40;;;19.61;46.29;100763.66;12139447;19;19939;-84
2023/09/20 06:23:58;;;;;;;;;;;20.40;45.30;;;19.61;46.62;100764.50;12142297;19;19927;-84
2023/09/20 06:28:01;;;;;;;;;;;20.40;45.20;;;19.66;46.51;100764.94;12140967;19;19934;-87
2023/09/20 06:32:04;;;;;;;;;;;20.50;45.90;;;19.72;46.47;100766.19;12136661;19;19954;-83
2023/09/20 06:36:06;;;;;;;;;;;20.50;45.50;;;19.71;46.76;100761.84;12141580;19;20013;-84
2023/09/20 06:40:17;;;;;;;;;;;20.60;45.50;;;19.69;46.86;100760.34;12135701;19;19919;-84
2023/09/20 06:44:19;;;;;;;;;;;20.60;45.50;;;19.82;46.80;100772.28;12139966;19;19923;-84
2023/09/20 06:48:22;;;;;;;;;;;20.60;45.50;;;19.93;46.98;100778.38;12135454;19;19939;-84
2023/09/20 06:52:24;;;;;;;;;;;20.70;45.70;;;19.97;46.82;100780.59;12141416;19;20022;-84
2023/09/20 06:56:26;;;;;;;;;;;20.70;45.60;;;20.03;46.60;100776.53;12138426;19;20037;-83
2023/09/20 07:00:28;;;;;;;;;;;20.80;46.00;;;20.08;46.98;100776.94;12138472;19;20512;-84
2023/09/20 07:04:31;;;;;;;;;;;20.90;45.90;;;20.16;47.09;100785.00;12128904;19;19926;-85
2023/09/20 07:08:34;;;;;;;;;;;21.00;45.80;;;20.15;47.13;100772.75;12141520;19;19929;-84
2023/09/20 07:12:38;;;;;;;;;;;21.00;46.10;;;20.24;46.87;100776.34;12136923;19;20356;-85
2023/09/20 07:16:40;;;;;;;;;;;21.10;45.80;;;20.36;47.17;100779.63;12141401;19;19914;-84
2023/09/20 07:20:42;;;;;;;;;;;21.20;46.10;;;20.47;46.74;100787.41;12137129;19;19921;-85
2023/09/20 07:24:46;;;;;;;;;;;21.30;45.90;;;20.59;46.90;100791.53;12138110;19;19938;-85
2023/09/20 07:28:47;;;;;;;;;;;21.40;45.80;;;20.29;47.18;100726.34;12140604;19;20904;-84
2023/09/20 07:32:50;;;;;;;;;;;21.50;45.70;;;20.65;47.03;100776.84;12137738;19;19926;-85
2023/09/20 07:36:53;;;;;;;;;;;21.50;45.70;;;20.77;47.01;100794.25;12136272;19;20275;-84
2023/09/20 07:41:17;;;;;;;;;;;21.70;46.10;;;20.79;47.19;100778.97;12135618;19;19945;-85
2023/09/20 07:45:22;;;;;;;;;;;21.70;46.20;;;20.97;47.24;100795.78;12134765;19;20693;-84
2023/09/20 07:49:23;;;;;;;;;;;21.80;45.90;;;21.09;47.06;100792.88;12134728;19;20274;-85
2023/09/20 07:53:26;;;;;;;;;;;22.00;46.00;;;21.21;47.13;100797.81;12134932;19;20309;-84
2023/09/20 07:57:28;;;;;;;;;;;22.10;46.30;;;21.36;47.36;100794.63;12135603;19;19951;-85
2023/09/20 08:01:30;;;;;;;;;;;22.20;46.60;;;21.23;47.40;100754.38;12133670;19;20376;-85
2023/09/20 08:05:33;;;;;;;;;;;22.40;45.90;;;21.64;47.42;100798.88;12132756;19;20259;-84
2023/09/20 08:09:34;;;;;;;;;;;22.50;45.90;;;21.67;47.29;100780.97;12134313;19;19922;-85
2023/09/20 08:13:35;;;;;;;;;;;22.70;46.00;;;21.67;47.26;100767.66;12133889;19;20382;-85
2023/09/20 08:21:58;;;;;;;;;;;23.00;45.80;;;22.12;47.15;100807.34;12134575;19;20038;-84
2023/09/20 09:00:51;;;;;;;;;;;24.30;45.50;;;23.11;47.02;100742.78;12138032;19;19947;-84
2023/09/20 09:04:54;;;;;;;;;;;24.30;45.20;;;23.52;47.28;100797.91;12140217;19;20323;-85
2023/09/20 09:08:55;;;;;;;;;;;24.50;45.10;;;23.59;47.30;100790.91;12145693;19;19919;-84
2023/09/20 09:12:57;;;;;;;;;;;24.60;45.10;;;23.72;47.22;100796.59;12132486;19;19970;-83
2023/09/20 09:17:03;;;;;;;;;;;24.60;45.00;;;23.74;47.11;100786.59;12145958;19;19933;-83
2023/09/20 09:21:05;;;;;;;;;;;24.70;44.90;;;23.87;47.26;100782.56;12136232;19;19942;-83
2023/09/20 09:25:16;;;;;;;;;;;24.80;45.00;;;24.02;46.89;100783.53;12142502;19;20341;-84
2023/09/20 09:29:21;;;;;;;;;;;25.00;45.40;;;24.10;47.29;100767.50;12138534;19;20276;-84
2023/09/20 09:33:23;;;;;;;;;;;25.10;45.00;;;24.27;46.84;100769.09;12140359;19;19923;-83
2023/09/20 09:37:25;;;;;;;;;;;25.20;45.10;;;24.39;47.11;100782.91;12144940;19;19929;-83
2023/09/20 09:41:39;;;;;;;;;;;25.30;45.00;;;24.56;46.94;100790.88;12131644;19;20010;-84
2023/09/20 09:45:44;;;;;;;;;;;25.50;45.10;;;24.58;46.70;100784.34;12140535;19;20272;-84
2023/09/20 09:49:48;;;;;;;;;;;25.60;44.40;;;24.68;47.01;100781.44;12138181;19;20398;-84
2023/09/20 09:53:50;;;;;;;;;;;25.70;44.80;;;24.75;46.56;100789.59;12141643;19;19929;-83
2023/09/20 09:57:52;;;;;;;;;;;25.70;44.50;;;24.76;46.98;100777.91;12144003;19;20212;-83
2023/09/20 10:01:55;;;;;;;;;;;25.70;44.50;;;24.64;46.68;100754.28;12137166;19;20819;-84
2023/09/20 10:06:21;;;;;;;;;;;25.80;44.40;;;24.62;46.66;100740.25;12139901;19;20347;-84
2023/09/20 10:10:23;;;;;;;;;;;25.80;44.50;;;24.85;46.75;100774.19;12126063;19;20773;-82
2023/09/20 10:14:24;;;;;;;;;;;25.80;43.70;;;24.83;46.43;100773.53;12128141;19;20243;-83
2023/09/20 10:18:33;;;;;;;;;;;25.80;43.80;;;24.82;46.64;100782.56;12140258;19;19922;-83
2023/09/20 10:22:41;;;;;;;;;;;25.80;44.10;;;24.78;46.44;100773.22;12130088;19;19923;-84
2023/09/20 10:26:43;;;;;;;;;;;25.70;43.80;;;24.69;46.63;100754.56;12123631;19;20826;-84
2023/09/20 10:31:01;;;;;;;;;;;25.70;44.00;;;24.76;46.30;100764.53;12131508;19;19922;-83
2023/09/20 10:35:31;;;;;;;;;;;25.60;44.10;;;24.74;46.17;100759.41;12127187;19;20700;-83
2023/09/20 10:39:33;;;;;;;;;;;25.70;44.20;;;24.77;46.52;100759.03;12121206;19;19927;-83
2023/09/20 10:43:34;;;;;;;;;;;25.70;44.20;;;24.87;46.54;100769.47;12117856;19;19939;-83
2023/09/20 10:47:36;;;;;;;;;;;25.70;44.40;;;24.89;46.46;100756.78;12121211;19;19926;-83
2023/09/20 10:51:49;;;;;;;;;;;25.70;43.60;;;24.94;46.21;100759.75;12129221;19;19919;-83
2023/09/20 10:55:50;;;;;;;;;;;25.70;43.70;;;24.97;46.37;100754.06;12136045;19;20724;-83
2023/09/20 10:59:53;;;;;;;;;;;25.80;42.90;;;24.99;45.90;100749.38;12124927;19;20720;-83
2023/09/20 11:03:57;;;;;;;;;;;25.80;44.00;;;24.96;46.11;100747.06;12121416;19;19941;-83
2023/09/20 11:08:11;;;;;;;;;;;25.80;43.60;;;24.98;45.83;100742.38;12117753;19;19934;-83
2023/09/20 11:12:14;;;;;;;;;;;25.80;43.90;;;24.93;46.01;100726.88;12132969;19;19915;-82
2023/09/20 11:16:19;;;;;;;;;;;25.80;44.00;;;24.89;45.79;100720.19;12128186;19;20801;-84
2023/09/20 11:20:20;;;;;;;;;;;25.80;44.10;;;24.98;46.20;100717.47;12118810;19;19940;-83
2023/09/20 11:24:23;;;;;;;;;;;25.80;44.00;;;25.00;45.76;100723.47;12117453;19;19926;-84
2023/09/20 11:28:27;;;;;;;;;;;25.80;44.00;;;24.92;45.69;100703.00;12118060;19;19922;-83
2023/09/20 11:32:28;;;;;;;;;;;25.80;44.00;;;25.03;46.06;100715.09;12129300;19;20747;-83
2023/09/20 11:36:37;;;;;;;;;;;25.80;43.60;;;24.99;45.90;100703.94;12133191;19;20346;-84
2023/09/20 11:40:42;;;;;;;;;;;25.80;43.60;;;25.11;46.03;100709.69;12117070;19;19952;-84
2023/09/20 11:44:53;;;;;;;;;;;25.80;44.20;;;25.16;45.77;100710.81;12118240;19;19918;-83
2023/09/20 11:49:02;;;;;;;;;;;25.90;44.30;;;25.30;45.98;100698.53;12117354;19;19986;-83
2023/09/20 11:53:05;;;;;;;;;;;26.00;44.30;;;25.42;46.15;100706.09;12130271;19;19934;-84
2023/09/20 11:57:06;;;;;;;;;;;26.10;43.80;;;25.51;46.02;100699.66;12130984;19;19991;-84
2023/09/20 12:01:08;;;;;;;;;;;26.20;44.20;;;25.67;45.79;100712.03;12111356;19;20724;-84
2023/09/20 12:05:10;;;;;;;;;;;26.40;43.60;;;25.79;45.64;100695.34;12117385;19;20278;-85
2023/09/20 12:09:13;;;;;;;;;;;26.50;43.00;;;25.97;45.48;100699.50;12122715;19;20318;-84
2023/09/20 12:13:14;;;;;;;;;;;26.70;43.10;;;26.10;45.75;100685.44;12128719;19;19927;-83
2023/09/20 12:17:16;;;;;;;;;;;26.90;43.30;;;26.25;45.53;100692.44;12131049;19;19990;-83
2023/09/20 12:21:18;;;;;;;;;;;27.00;43.70;;;26.30;45.68;100664.25;12115050;19;19923;-85
2023/09/20 12:25:20;;;;;;;;;;;27.20;42.30;;;26.54;45.58;100679.16;12119613;19;20033;-84
2023/09/20 12:29:22;;;;;;;;;;;27.30;43.60;;;26.65;45.25;100673.31;12126822;19;19926;-84
2023/09/20 12:33:27;;;;;;;;;;;27.40;42.70;;;26.70;45.31;100666.34;12151928;19;19951;-85
2023/09/20 12:37:30;;;;;;;;;;;27.60;42.50;;;26.80;45.19;100670.56;12156159;19;19929;-85
2023/09/20 12:41:31;;;;;;;;;;;27.60;43.50;;;26.86;45.42;100667.94;12144812;19;20822;-84
2023/09/20 12:45:33;;;;;;;;;;;27.70;42.90;;;26.90;45.24;100653.13;12146401;19;19923;-83
2023/09/20 12:49:38;;;;;;;;;;;27.80;42.70;;;26.95;45.30;100649.03;12142366;19;19922;-84
2023/09/20 12:53:42;;;;;;;;;;;27.80;43.30;;;27.01;45.15;100641.06;12150586;19;19915;-85
2023/09/20 12:57:44;;;;;;;;;;;27.80;42.60;;;27.06;45.52;100641.31;12153124;19;20687;-84
2023/09/20 13:01:46;;;;;;;;;;;27.90;42.80;;;27.14;44.78;100643.03;12139589;19;19919;-85
2023/09/20 13:05:48;;;;;;;;;;;28.00;42.90;;;27.13;44.76;100630.63;12140055;19;19984;-84
2023/09/20 13:09:49;;;;;;;;;;;28.00;43.00;;;27.27;45.24;100628.88;12145166;19;19923;-84
2023/09/20 13:13:52;;;;;;;;;;;28.10;43.20;;;27.28;44.91;100633.25;12134794;19;19927;-82
2023/09/20 13:17:57;;;;;;;;;;;28.10;42.60;;;27.29;44.86;100633.03;12140400;19;20282;-84
2023/09/20 13:21:59;;;;;;;;;;;28.10;40.70;;;27.29;44.72;100627.66;12136911;19;20812;-84
2023/09/20 13:26:03;;;;;;;;;;;28.10;42.30;;;27.30;44.71;100623.13;12140305;19;19926;-84
2023/09/20 13:30:10;;;;;;;;;;;28.10;42.70;;;27.31;44.76;100625.63;12131505;19;20241;-83
2023/09/20 13:34:15;;;;;;;;;;;28.10;42.90;;;27.34;44.77;100625.22;12130474;19;19937;-84
2023/09/20 13:38:16;;;;;;;;;;;28.10;42.90;;;27.38;44.72;100619.47;12133324;19;19923;-84
2023/09/20 13:42:18;;;;;;;;;;;28.20;42.30;;;27.37;44.58;100605.22;12145081;19;19918;-83
2023/09/20 13:46:20;;;;;;;;;;;28.20;42.90;;;27.39;44.35;100600.50;12139576;19;19923;-84
2023/09/20 13:50:23;;;;;;;;;;;28.20;42.70;;;27.49;44.80;100610.84;12133572;19;20196;-83
2023/09/20 13:54:25;;;;;;;;;;;28.30;42.80;;;27.51;44.56;100611.47;12139643;19;19930;-83
2023/09/20 13:58:26;;;;;;;;;;;28.30;42.70;;;27.57;44.23;100621.41;12127400;19;19915;-82
2023/09/20 14:02:28;;;;;;;;;;;28.30;42.40;;;27.57;44.41;100616.91;12118804;19;20700;-83
2023/09/20 14:06:30;;;;;;;;;;;28.30;40.60;;;27.54;44.67;100606.56;12115982;19;20341;-84
2023/09/20 14:10:33;;;;;;;;;;;28.30;42.10;;;27.59;44.21;100601.41;12122845;19;19956;-83
2023/09/20 14:14:36;;;;;;;;;;;28.30;40.50;;;27.55;43.98;100602.84;12131012;19;20785;-82
2023/09/20 14:18:37;;;;;;;;;;;28.30;40.50;;;27.54;44.16;100589.63;12126657;19;19923;-83
2023/09/20 14:22:39;;;;;;;;;;;28.30;41.40;;;27.55;43.92;100593.97;12110145;19;19934;-83
2023/09/20 14:26:41;;;;;;;;;;;28.30;41.80;;;27.59;43.90;100596.03;12109102;19;19922;-83
2023/09/20 14:30:43;;;;;;;;;;;28.30;41.70;;;27.61;43.81;100589.66;12112372;19;19926;-83
2023/09/20 14:34:44;;;;;;;;;;;28.30;42.10;;;27.58;43.94;100582.84;12125976;19;19923;-81
2023/09/20 14:38:46;;;;;;;;;;;28.30;41.60;;;27.65;44.04;100594.41;12120684;19;20372;-81
2023/09/20 14:42:56;;;;;;;;;;;28.30;42.10;;;27.53;43.62;100575.38;12118762;19;19952;-82
2023/09/20 14:47:00;;;;;;;;;;;28.40;42.30;;;27.66;43.98;100590.72;12107776;19;19919;-81
2023/09/20 14:51:01;;;;;;;;;;;28.30;42.30;;;27.65;43.62;100583.69;12122200;19;20404;-81
2023/09/20 14:55:03;;;;;;;;;;;28.40;42.20;;;27.70;43.99;100578.53;12126105;19;20302;-81
2023/09/20 14:59:05;;;;;;;;;;;28.40;42.40;;;27.68;43.62;100579.78;12121103;19;19939;-81
2023/09/20 15:03:07;;;;;;;;;;;28.40;41.90;;;27.67;43.89;100565.53;12109065;19;19925;-82
2023/09/20 15:07:08;;;;;;;;;;;28.40;42.30;;;27.73;43.64;100567.44;12107131;19;19938;-81
2023/09/20 15:11:13;;;;;;;;;;;28.40;42.20;;;27.78;43.64;100573.00;12120951;19;20020;-81
2023/09/20 15:15:15;;;;;;;;;;;28.40;42.20;;;27.80;43.60;100579.03;12126831;19;20655;-81
2023/09/20 15:19:17;;;;;;;;;;;28.40;42.20;;;27.79;43.62;100580.03;12121048;19;19943;-81
2023/09/20 15:23:18;;;;;;;;;;;28.40;42.30;;;27.79;43.62;100574.66;12109396;19;20780;-81
2023/09/20 15:27:20;;;;;;;;;;;28.50;42.20;;;27.77;43.52;100573.22;12110641;19;19927;-81
2023/09/20 15:31:25;;;;;;;;;;;28.40;42.30;;;27.77;43.49;100565.97;12118257;19;19919;-81
2023/09/20 15:35:29;;;;;;;;;;;28.40;42.20;;;27.73;43.51;100558.53;12130872;19;19915;-81
2023/09/20 15:39:35;;;;;;;;;;;28.40;42.40;;;27.74;43.46;100558.34;12118592;19;20683;-81
2023/09/20 15:43:39;;;;;;;;;;;28.40;42.40;;;27.75;43.22;100567.22;12109926;19;19929;-81
2023/09/20 15:47:40;;;;;;;;;;;28.40;42.50;;;27.75;43.75;100568.03;12107546;19;19925;-81
2023/09/20 15:51:42;;;;;;;;;;;28.40;42.60;;;27.73;43.31;100559.38;12119669;19;19919;-81
2023/09/20 15:55:44;;;;;;;;;;;28.40;42.60;;;27.73;43.14;100564.75;12126438;19;20192;-81
2023/09/20 15:59:46;;;;;;;;;;;28.40;42.70;;;27.65;43.39;100554.16;12114731;19;20663;-81
2023/09/20 16:03:47;;;;;;;;;;;28.40;42.70;;;27.60;43.32;100540.56;12105895;19;19947;-82
2023/09/20 16:07:49;;;;;;;;;;;28.30;42.70;;;27.59;43.32;100544.25;12100104;19;19922;-81
2023/09/20 16:11:52;;;;;;;;;;;28.30;42.80;;;27.57;43.31;100544.47;12121681;19;19927;-81
2023/09/20 16:15:53;;;;;;;;;;;28.20;42.90;;;27.47;43.50;100554.72;12126077;19;19927;-81
2023/09/20 16:19:55;;;;;;;;;;;28.10;43.00;;;27.42;43.13;100540.25;12113280;19;20518;-81
2023/09/20 16:23:57;;;;;;;;;;;28.00;43.00;;;27.30;43.51;100527.44;12104068;19;19931;-81
2023/09/20 16:27:58;;;;;;;;;;;27.90;43.10;;;27.28;43.33;100531.34;12103605;19;20204;-81
2023/09/20 16:32:00;;;;;;;;;;;27.80;43.10;;;27.20;43.43;100536.88;12115694;19;20683;-81
2023/09/20 16:36:02;;;;;;;;;;;27.70;43.10;;;27.10;43.49;100531.81;12121440;19;19919;-82
2023/09/20 16:40:04;;;;;;;;;;;27.70;43.10;;;27.02;43.54;100534.66;12109917;19;20000;-81
2023/09/20 16:44:05;;;;;;;;;;;27.50;43.10;;;26.92;43.31;100526.97;12102483;19;19939;-81
2023/09/20 16:48:07;;;;;;;;;;;27.50;43.20;;;26.88;43.33;100529.22;12105133;19;19952;-81
2023/09/20 16:52:08;;;;;;;;;;;27.40;43.20;;;26.84;43.24;100527.13;12116433;19;19927;-81
2023/09/20 16:56:11;;;;;;;;;;;27.40;43.30;;;26.73;43.46;100516.94;12118715;19;19933;-81
2023/09/20 17:00:14;;;;;;;;;;;27.30;43.20;;;26.63;43.38;100518.13;12105758;19;20763;-81
2023/09/20 17:04:16;;;;;;;;;;;27.20;43.20;;;26.63;43.32;100536.06;12101848;19;19926;-81
2023/09/20 17:08:17;;;;;;;;;;;27.10;43.20;;;26.56;43.38;100535.19;12104252;19;19931;-81
2023/09/20 17:12:19;;;;;;;;;;;27.00;43.20;;;26.47;43.38;100537.97;12118641;19;19970;-81
2023/09/20 17:16:22;;;;;;;;;;;26.90;43.20;;;26.39;43.43;100529.25;12118600;19;19952;-81
2023/09/20 17:20:23;;;;;;;;;;;26.90;43.20;;;26.21;43.43;100527.84;12117201;19;20843;-81
2023/09/20 17:24:25;;;;;;;;;;;26.70;43.40;;;26.18;43.29;100530.09;12121050;19;20900;-82
2023/09/20 17:28:27;;;;;;;;;;;26.60;43.20;;;26.09;43.24;100520.53;12132043;19;20700;-82
2023/09/20 17:32:28;;;;;;;;;;;26.50;43.20;;;26.01;43.70;100542.91;12146918;19;19926;-83
2023/09/20 17:36:31;;;;;;;;;;;26.30;43.30;;;25.82;43.75;100522.91;12148799;19;19911;-82
2023/09/20 17:40:32;;;;;;;;;;;26.30;43.30;;;25.66;43.21;100520.47;12132053;19;19927;-85
2023/09/20 17:44:34;;;;;;;;;;;26.20;43.30;;;25.68;43.50;100537.13;12133915;19;19923;-81
2023/09/20 17:48:37;;;;;;;;;;;26.10;43.40;;;25.56;43.81;100539.47;12130527;19;19951;-82
2023/09/20 17:52:40;;;;;;;;;;;25.90;43.40;;;25.50;43.33;100541.06;12140297;19;19923;-82
2023/09/20 17:56:46;;;;;;;;;;;25.90;43.50;;;25.40;43.37;100535.16;12143565;19;19922;-82
2023/09/20 18:00:47;;;;;;;;;;;25.80;43.50;;;25.31;43.35;100530.94;12129144;19;19927;-82
2023/09/20 18:04:49;;;;;;;;;;;25.70;43.50;;;25.11;43.78;100526.13;12129368;19;19930;-82
2023/09/20 18:08:51;;;;;;;;;;;25.60;43.50;;;25.01;43.82;100530.91;12128682;19;20240;-83
2023/09/20 18:12:52;;;;;;;;;;;25.40;43.40;;;24.98;43.93;100543.78;12143685;19;19929;-82
2023/09/20 18:16:54;;;;;;;;;;;25.30;43.50;;;24.87;43.75;100534.38;12143587;19;19926;-82
2023/09/20 18:20:56;;;;;;;;;;;25.20;43.60;;;24.80;43.56;100534.31;12126833;19;19929;-82
2023/09/20 18:24:58;;;;;;;;;;;25.10;43.70;;;24.72;43.59;100537.88;12131459;19;19939;-82
2023/09/20 18:28:59;;;;;;;;;;;25.00;43.70;;;24.59;43.49;100536.84;12131525;19;19922;-82
2023/09/20 18:33:02;;;;;;;;;;;24.90;43.70;;;24.46;43.63;100538.28;12143665;19;19927;-82
2023/09/20 18:37:04;;;;;;;;;;;24.80;43.70;;;24.36;43.66;100542.16;12142789;19;19922;-83
2023/09/20 18:41:08;;;;;;;;;;;24.70;43.70;;;24.32;43.86;100546.22;12129331;19;19925;-82
2023/09/20 18:45:13;;;;;;;;;;;24.60;43.80;;;24.17;43.87;100536.34;12136634;19;20289;-82
2023/09/20 18:49:15;;;;;;;;;;;24.50;43.80;;;24.14;44.01;100542.03;12132647;19;19930;-84
2023/09/20 18:53:17;;;;;;;;;;;24.40;43.80;;;24.10;43.83;100537.22;12141312;19;20377;-84